sensor_id;sensor_type;location;lat;lon;timestamp;P1;durP1;ratioP1;P2;durP2;ratioP2
5718;SDS011;2884;47.734;9.244;2023-06-22T00:01:27;4.70;;;4.10;;
5718;SDS011;2884;47.734;9.244;2023-06-22T00:03:53;9.07;;;4.37;;
5718;SDS011;2884;47.734;9.244;2023-06-22T00:06:18;14.77;;;5.00;;
5718;SDS011;2884;47.734;9.244;2023-06-22T00:08:44;10.07;;;4.43;;
5718;SDS011;2884;47.734;9.244;2023-06-22T00:11:09;6.10;;;3.83;;
5718;SDS011;2884;47.734;9.244;2023-06-22T00:13:35;8.23;;;4.70;;
5718;SDS011;2884;47.734;9.244;2023-06-22T00:16:01;10.80;;;4.80;;
5718;SDS011;2884;47.734;9.244;2023-06-22T00:18:26;9.30;;;5.63;;
5718;SDS011;2884;47.734;9.244;2023-06-22T00:20:54;13.43;;;4.93;;
5718;SDS011;2884;47.734;9.244;2023-06-22T00:23:22;8.13;;;4.77;;
5718;SDS011;2884;47.734;9.244;2023-06-22T00:25:48;6.53;;;4.67;;
5718;SDS011;2884;47.734;9.244;2023-06-22T00:28:14;8.80;;;4.30;;
5718;SDS011;2884;47.734;9.244;2023-06-22T00:30:40;12.50;;;5.17;;
5718;SDS011;2884;47.734;9.244;2023-06-22T00:33:05;11.23;;;4.40;;
5718;SDS011;2884;47.734;9.244;2023-06-22T00:35:32;9.60;;;4.63;;
5718;SDS011;2884;47.734;9.244;2023-06-22T00:37:59;8.33;;;4.77;;
5718;SDS011;2884;47.734;9.244;2023-06-22T00:40:33;7.03;;;4.70;;
5718;SDS011;2884;47.734;9.244;2023-06-22T00:42:59;13.33;;;5.00;;
5718;SDS011;2884;47.734;9.244;2023-06-22T00:45:25;11.07;;;5.30;;
5718;SDS011;2884;47.734;9.244;2023-06-22T00:47:51;10.67;;;4.90;;
5718;SDS011;2884;47.734;9.244;2023-06-22T00:50:21;14.80;;;5.67;;
5718;SDS011;2884;47.734;9.244;2023-06-22T00:52:56;9.47;;;5.30;;
5718;SDS011;2884;47.734;9.244;2023-06-22T00:55:23;8.40;;;5.00;;
5718;SDS011;2884;47.734;9.244;2023-06-22T00:57:51;7.07;;;5.33;;
5718;SDS011;2884;47.734;9.244;2023-06-22T01:00:20;10.23;;;4.73;;
5718;SDS011;2884;47.734;9.244;2023-06-22T01:02:53;18.27;;;4.93;;
5718;SDS011;2884;47.734;9.244;2023-06-22T01:05:18;11.10;;;5.33;;
5718;SDS011;2884;47.734;9.244;2023-06-22T01:10:18;10.00;;;4.90;;
5718;SDS011;2884;47.734;9.244;2023-06-22T01:12:55;7.20;;;4.37;;
5718;SDS011;2884;47.734;9.244;2023-06-22T01:15:33;7.60;;;4.80;;
5718;SDS011;2884;47.734;9.244;2023-06-22T01:18:03;9.93;;;4.80;;
5718;SDS011;2884;47.734;9.244;2023-06-22T01:20:31;11.87;;;6.13;;
5718;SDS011;2884;47.734;9.244;2023-06-22T01:25:33;8.33;;;5.00;;
5718;SDS011;2884;47.734;9.244;2023-06-22T01:28:19;13.70;;;5.50;;
5718;SDS011;2884;47.734;9.244;2023-06-22T01:30:45;10.47;;;4.50;;
5718;SDS011;2884;47.734;9.244;2023-06-22T01:33:12;9.83;;;4.90;;
5718;SDS011;2884;47.734;9.244;2023-06-22T01:35:38;8.47;;;5.50;;
5718;SDS011;2884;47.734;9.244;2023-06-22T01:38:04;10.53;;;5.03;;
5718;SDS011;2884;47.734;9.244;2023-06-22T01:40:30;7.57;;;4.20;;
5718;SDS011;2884;47.734;9.244;2023-06-22T01:42:57;6.27;;;4.07;;
5718;SDS011;2884;47.734;9.244;2023-06-22T01:45:23;10.70;;;5.07;;
5718;SDS011;2884;47.734;9.244;2023-06-22T01:47:49;11.73;;;5.70;;
5718;SDS011;2884;47.734;9.244;2023-06-22T01:50:14;7.77;;;4.80;;
5718;SDS011;2884;47.734;9.244;2023-06-22T01:52:40;13.63;;;5.30;;
5718;SDS011;2884;47.734;9.244;2023-06-22T01:55:06;6.13;;;4.37;;
5718;SDS011;2884;47.734;9.244;2023-06-22T01:57:33;10.13;;;4.67;;
5718;SDS011;2884;47.734;9.244;2023-06-22T02:02:30;7.70;;;4.57;;
5718;SDS011;2884;47.734;9.244;2023-06-22T02:05:00;6.97;;;4.63;;
5718;SDS011;2884;47.734;9.244;2023-06-22T02:07:31;7.00;;;4.47;;
5718;SDS011;2884;47.734;9.244;2023-06-22T02:09:59;5.60;;;4.00;;
5718;SDS011;2884;47.734;9.244;2023-06-22T02:12:25;6.00;;;4.00;;
5718;SDS011;2884;47.734;9.244;2023-06-22T02:14:52;7.77;;;4.77;;
5718;SDS011;2884;47.734;9.244;2023-06-22T02:17:19;4.50;;;4.10;;
5718;SDS011;2884;47.734;9.244;2023-06-22T02:19:45;7.77;;;4.53;;
5718;SDS011;2884;47.734;9.244;2023-06-22T02:22:11;9.33;;;3.53;;
5718;SDS011;2884;47.734;9.244;2023-06-22T02:24:38;11.13;;;4.50;;
5718;SDS011;2884;47.734;9.244;2023-06-22T02:27:03;9.23;;;4.60;;
5718;SDS011;2884;47.734;9.244;2023-06-22T02:29:31;9.93;;;4.47;;
5718;SDS011;2884;47.734;9.244;2023-06-22T02:31:56;6.53;;;4.73;;
5718;SDS011;2884;47.734;9.244;2023-06-22T02:34:22;8.13;;;4.90;;
5718;SDS011;2884;47.734;9.244;2023-06-22T02:36:48;7.83;;;4.80;;
5718;SDS011;2884;47.734;9.244;2023-06-22T02:39:19;5.97;;;3.50;;
5718;SDS011;2884;47.734;9.244;2023-06-22T02:41:48;9.40;;;5.10;;
5718;SDS011;2884;47.734;9.244;2023-06-22T02:44:17;6.20;;;3.53;;
5718;SDS011;2884;47.734;9.244;2023-06-22T02:46:43;7.37;;;4.23;;
5718;SDS011;2884;47.734;9.244;2023-06-22T02:49:09;11.97;;;4.10;;
5718;SDS011;2884;47.734;9.244;2023-06-22T02:51:36;5.27;;;4.30;;
5718;SDS011;2884;47.734;9.244;2023-06-22T02:54:10;6.80;;;4.13;;
5718;SDS011;2884;47.734;9.244;2023-06-22T02:56:36;3.30;;;3.10;;
5718;SDS011;2884;47.734;9.244;2023-06-22T02:59:02;5.80;;;3.87;;
5718;SDS011;2884;47.734;9.244;2023-06-22T03:01:28;8.20;;;4.37;;
5718;SDS011;2884;47.734;9.244;2023-06-22T03:03:56;6.90;;;4.43;;
5718;SDS011;2884;47.734;9.244;2023-06-22T03:06:21;4.63;;;4.20;;
5718;SDS011;2884;47.734;9.244;2023-06-22T03:08:49;5.57;;;4.50;;
5718;SDS011;2884;47.734;9.244;2023-06-22T03:11:15;5.10;;;4.20;;
5718;SDS011;2884;47.734;9.244;2023-06-22T03:13:41;6.57;;;4.30;;
5718;SDS011;2884;47.734;9.244;2023-06-22T03:16:06;7.90;;;4.67;;
5718;SDS011;2884;47.734;9.244;2023-06-22T03:18:32;8.67;;;4.90;;
5718;SDS011;2884;47.734;9.244;2023-06-22T03:20:57;7.00;;;4.90;;
5718;SDS011;2884;47.734;9.244;2023-06-22T03:23:23;8.87;;;6.00;;
5718;SDS011;2884;47.734;9.244;2023-06-22T03:25:49;8.23;;;5.30;;
5718;SDS011;2884;47.734;9.244;2023-06-22T03:28:14;6.80;;;5.07;;
5718;SDS011;2884;47.734;9.244;2023-06-22T03:30:40;8.83;;;4.93;;
5718;SDS011;2884;47.734;9.244;2023-06-22T03:33:05;11.57;;;5.23;;
5718;SDS011;2884;47.734;9.244;2023-06-22T03:35:50;10.50;;;4.93;;
5718;SDS011;2884;47.734;9.244;2023-06-22T03:38:18;6.70;;;4.80;;
5718;SDS011;2884;47.734;9.244;2023-06-22T03:40:44;9.60;;;4.90;;
5718;SDS011;2884;47.734;9.244;2023-06-22T03:43:12;10.53;;;5.23;;
5718;SDS011;2884;47.734;9.244;2023-06-22T03:45:38;6.50;;;4.87;;
5718;SDS011;2884;47.734;9.244;2023-06-22T03:48:05;8.17;;;5.70;;
5718;SDS011;2884;47.734;9.244;2023-06-22T03:50:30;11.90;;;5.60;;
5718;SDS011;2884;47.734;9.244;2023-06-22T03:52:56;8.30;;;5.10;;
5718;SDS011;2884;47.734;9.244;2023-06-22T03:55:21;10.20;;;5.03;;
5718;SDS011;2884;47.734;9.244;2023-06-22T03:57:47;7.40;;;4.87;;
5718;SDS011;2884;47.734;9.244;2023-06-22T04:00:16;9.07;;;4.70;;
5718;SDS011;2884;47.734;9.244;2023-06-22T04:02:42;7.10;;;4.63;;
5718;SDS011;2884;47.734;9.244;2023-06-22T04:05:08;9.23;;;4.50;;
5718;SDS011;2884;47.734;9.244;2023-06-22T04:07:34;7.50;;;4.70;;
5718;SDS011;2884;47.734;9.244;2023-06-22T04:10:02;7.47;;;4.90;;
5718;SDS011;2884;47.734;9.244;2023-06-22T04:12:29;6.83;;;4.60;;
5718;SDS011;2884;47.734;9.244;2023-06-22T04:15:17;8.77;;;4.87;;
5718;SDS011;2884;47.734;9.244;2023-06-22T04:17:42;8.83;;;4.73;;
5718;SDS011;2884;47.734;9.244;2023-06-22T04:20:08;7.80;;;4.90;;
5718;SDS011;2884;47.734;9.244;2023-06-22T04:22:34;9.90;;;5.20;;
5718;SDS011;2884;47.734;9.244;2023-06-22T04:24:59;10.67;;;5.77;;
5718;SDS011;2884;47.734;9.244;2023-06-22T04:27:24;8.53;;;6.10;;
5718;SDS011;2884;47.734;9.244;2023-06-22T04:29:50;9.03;;;5.33;;
5718;SDS011;2884;47.734;9.244;2023-06-22T04:32:16;10.17;;;6.20;;
5718;SDS011;2884;47.734;9.244;2023-06-22T04:34:42;6.73;;;5.27;;
5718;SDS011;2884;47.734;9.244;2023-06-22T04:37:08;7.10;;;5.33;;
5718;SDS011;2884;47.734;9.244;2023-06-22T04:39:34;10.00;;;6.13;;
5718;SDS011;2884;47.734;9.244;2023-06-22T04:41:59;14.43;;;6.40;;
5718;SDS011;2884;47.734;9.244;2023-06-22T04:44:25;10.87;;;5.87;;
5718;SDS011;2884;47.734;9.244;2023-06-22T04:46:58;8.87;;;5.80;;
5718;SDS011;2884;47.734;9.244;2023-06-22T04:49:27;22.03;;;6.43;;
5718;SDS011;2884;47.734;9.244;2023-06-22T04:52:04;8.20;;;5.10;;
5718;SDS011;2884;47.734;9.244;2023-06-22T04:54:32;7.20;;;5.47;;
5718;SDS011;2884;47.734;9.244;2023-06-22T04:56:58;14.57;;;6.83;;
5718;SDS011;2884;47.734;9.244;2023-06-22T04:59:27;12.13;;;5.37;;
5718;SDS011;2884;47.734;9.244;2023-06-22T05:01:55;8.23;;;6.67;;
5718;SDS011;2884;47.734;9.244;2023-06-22T05:04:24;8.80;;;6.90;;
5718;SDS011;2884;47.734;9.244;2023-06-22T05:06:50;9.77;;;5.90;;
5718;SDS011;2884;47.734;9.244;2023-06-22T05:09:17;10.80;;;5.90;;
5718;SDS011;2884;47.734;9.244;2023-06-22T05:11:49;11.83;;;6.50;;
5718;SDS011;2884;47.734;9.244;2023-06-22T05:14:14;11.53;;;5.97;;
5718;SDS011;2884;47.734;9.244;2023-06-22T05:16:43;10.97;;;6.13;;
5718;SDS011;2884;47.734;9.244;2023-06-22T05:19:10;10.30;;;6.67;;
5718;SDS011;2884;47.734;9.244;2023-06-22T05:21:38;23.17;;;8.03;;
5718;SDS011;2884;47.734;9.244;2023-06-22T05:24:04;13.40;;;7.23;;
5718;SDS011;2884;47.734;9.244;2023-06-22T05:26:30;9.87;;;5.50;;
5718;SDS011;2884;47.734;9.244;2023-06-22T05:28:57;14.60;;;5.90;;
5718;SDS011;2884;47.734;9.244;2023-06-22T05:31:23;9.87;;;6.43;;
5718;SDS011;2884;47.734;9.244;2023-06-22T05:33:50;15.70;;;6.67;;
5718;SDS011;2884;47.734;9.244;2023-06-22T05:36:17;9.60;;;6.87;;
5718;SDS011;2884;47.734;9.244;2023-06-22T05:38:45;12.17;;;6.10;;
5718;SDS011;2884;47.734;9.244;2023-06-22T05:41:10;7.80;;;5.40;;
5718;SDS011;2884;47.734;9.244;2023-06-22T05:43:36;11.50;;;6.60;;
5718;SDS011;2884;47.734;9.244;2023-06-22T05:46:02;15.53;;;6.27;;
5718;SDS011;2884;47.734;9.244;2023-06-22T05:48:29;14.77;;;6.63;;
5718;SDS011;2884;47.734;9.244;2023-06-22T05:50:55;14.03;;;7.40;;
5718;SDS011;2884;47.734;9.244;2023-06-22T05:53:21;12.00;;;6.03;;
5718;SDS011;2884;47.734;9.244;2023-06-22T05:55:47;11.93;;;6.67;;
5718;SDS011;2884;47.734;9.244;2023-06-22T05:58:12;11.70;;;6.20;;
5718;SDS011;2884;47.734;9.244;2023-06-22T06:00:41;11.33;;;5.83;;
5718;SDS011;2884;47.734;9.244;2023-06-22T06:03:07;8.13;;;5.17;;
5718;SDS011;2884;47.734;9.244;2023-06-22T06:05:33;10.37;;;6.00;;
5718;SDS011;2884;47.734;9.244;2023-06-22T06:08:00;15.50;;;6.10;;
5718;SDS011;2884;47.734;9.244;2023-06-22T06:10:26;12.00;;;5.80;;
5718;SDS011;2884;47.734;9.244;2023-06-22T06:12:52;11.10;;;5.60;;
5718;SDS011;2884;47.734;9.244;2023-06-22T06:15:18;9.10;;;5.80;;
5718;SDS011;2884;47.734;9.244;2023-06-22T06:17:53;8.97;;;5.83;;
5718;SDS011;2884;47.734;9.244;2023-06-22T06:20:20;9.63;;;5.83;;
5718;SDS011;2884;47.734;9.244;2023-06-22T06:22:48;11.00;;;5.20;;
5718;SDS011;2884;47.734;9.244;2023-06-22T06:25:13;14.10;;;6.13;;
5718;SDS011;2884;47.734;9.244;2023-06-22T06:27:42;11.50;;;6.20;;
5718;SDS011;2884;47.734;9.244;2023-06-22T06:30:09;10.20;;;5.87;;
5718;SDS011;2884;47.734;9.244;2023-06-22T06:32:35;7.93;;;5.43;;
5718;SDS011;2884;47.734;9.244;2023-06-22T06:35:01;8.20;;;5.80;;
5718;SDS011;2884;47.734;9.244;2023-06-22T06:37:27;9.20;;;5.20;;
5718;SDS011;2884;47.734;9.244;2023-06-22T06:39:53;15.53;;;6.73;;
5718;SDS011;2884;47.734;9.244;2023-06-22T06:42:18;9.67;;;5.70;;
5718;SDS011;2884;47.734;9.244;2023-06-22T06:44:45;14.40;;;5.67;;
5718;SDS011;2884;47.734;9.244;2023-06-22T06:47:10;10.07;;;5.70;;
5718;SDS011;2884;47.734;9.244;2023-06-22T06:49:36;14.77;;;5.10;;
5718;SDS011;2884;47.734;9.244;2023-06-22T06:52:01;7.90;;;4.83;;
5718;SDS011;2884;47.734;9.244;2023-06-22T06:54:27;11.63;;;5.43;;
5718;SDS011;2884;47.734;9.244;2023-06-22T06:56:53;14.50;;;6.03;;
5718;SDS011;2884;47.734;9.244;2023-06-22T06:59:18;10.30;;;5.00;;
5718;SDS011;2884;47.734;9.244;2023-06-22T07:01:44;15.33;;;5.83;;
5718;SDS011;2884;47.734;9.244;2023-06-22T07:04:10;7.20;;;5.20;;
5718;SDS011;2884;47.734;9.244;2023-06-22T07:06:35;10.87;;;5.53;;
5718;SDS011;2884;47.734;9.244;2023-06-22T07:09:02;11.77;;;5.00;;
5718;SDS011;2884;47.734;9.244;2023-06-22T07:11:28;8.57;;;5.70;;
5718;SDS011;2884;47.734;9.244;2023-06-22T07:13:54;17.10;;;6.20;;
5718;SDS011;2884;47.734;9.244;2023-06-22T07:16:19;8.20;;;5.70;;
5718;SDS011;2884;47.734;9.244;2023-06-22T07:18:45;7.07;;;4.97;;
5718;SDS011;2884;47.734;9.244;2023-06-22T07:21:10;14.03;;;5.87;;
5718;SDS011;2884;47.734;9.244;2023-06-22T07:23:36;10.87;;;5.60;;
5718;SDS011;2884;47.734;9.244;2023-06-22T07:26:02;9.70;;;5.93;;
5718;SDS011;2884;47.734;9.244;2023-06-22T07:28:27;13.30;;;6.60;;
5718;SDS011;2884;47.734;9.244;2023-06-22T07:30:56;14.70;;;6.70;;
5718;SDS011;2884;47.734;9.244;2023-06-22T07:33:22;12.80;;;6.40;;
5718;SDS011;2884;47.734;9.244;2023-06-22T07:35:48;10.83;;;6.70;;
5718;SDS011;2884;47.734;9.244;2023-06-22T07:38:13;11.17;;;6.63;;
5718;SDS011;2884;47.734;9.244;2023-06-22T07:40:40;13.43;;;5.17;;
5718;SDS011;2884;47.734;9.244;2023-06-22T07:43:07;12.57;;;6.17;;
5718;SDS011;2884;47.734;9.244;2023-06-22T07:45:32;10.17;;;7.00;;
5718;SDS011;2884;47.734;9.244;2023-06-22T07:48:00;17.90;;;7.40;;
5718;SDS011;2884;47.734;9.244;2023-06-22T07:50:26;11.60;;;6.30;;
5718;SDS011;2884;47.734;9.244;2023-06-22T07:52:51;15.30;;;7.20;;
5718;SDS011;2884;47.734;9.244;2023-06-22T07:55:18;15.07;;;6.93;;
5718;SDS011;2884;47.734;9.244;2023-06-22T07:57:43;18.10;;;8.73;;
5718;SDS011;2884;47.734;9.244;2023-06-22T08:00:09;10.83;;;5.90;;
5718;SDS011;2884;47.734;9.244;2023-06-22T08:02:40;14.47;;;7.13;;
5718;SDS011;2884;47.734;9.244;2023-06-22T08:05:06;13.87;;;6.87;;
5718;SDS011;2884;47.734;9.244;2023-06-22T08:07:34;22.40;;;8.40;;
5718;SDS011;2884;47.734;9.244;2023-06-22T08:10:03;19.60;;;8.03;;
5718;SDS011;2884;47.734;9.244;2023-06-22T08:12:33;13.40;;;8.20;;
5718;SDS011;2884;47.734;9.244;2023-06-22T08:14:59;14.03;;;8.90;;
5718;SDS011;2884;47.734;9.244;2023-06-22T08:17:24;19.40;;;9.03;;
5718;SDS011;2884;47.734;9.244;2023-06-22T08:19:50;13.50;;;7.67;;
5718;SDS011;2884;47.734;9.244;2023-06-22T08:22:16;21.33;;;8.60;;
5718;SDS011;2884;47.734;9.244;2023-06-22T08:24:42;29.83;;;8.80;;
5718;SDS011;2884;47.734;9.244;2023-06-22T08:27:09;15.10;;;8.07;;
5718;SDS011;2884;47.734;9.244;2023-06-22T08:29:37;16.43;;;8.43;;
5718;SDS011;2884;47.734;9.244;2023-06-22T08:32:03;18.20;;;8.30;;
5718;SDS011;2884;47.734;9.244;2023-06-22T08:34:28;14.60;;;7.53;;
5718;SDS011;2884;47.734;9.244;2023-06-22T08:36:54;12.90;;;7.73;;
5718;SDS011;2884;47.734;9.244;2023-06-22T08:39:19;16.97;;;8.77;;
5718;SDS011;2884;47.734;9.244;2023-06-22T08:41:46;14.37;;;7.93;;
5718;SDS011;2884;47.734;9.244;2023-06-22T08:44:12;18.20;;;7.80;;
5718;SDS011;2884;47.734;9.244;2023-06-22T08:46:38;14.97;;;6.53;;
5718;SDS011;2884;47.734;9.244;2023-06-22T08:49:05;11.70;;;6.30;;
5718;SDS011;2884;47.734;9.244;2023-06-22T08:51:31;17.90;;;7.43;;
5718;SDS011;2884;47.734;9.244;2023-06-22T08:53:57;20.70;;;7.70;;
5718;SDS011;2884;47.734;9.244;2023-06-22T08:56:22;19.67;;;7.50;;
5718;SDS011;2884;47.734;9.244;2023-06-22T08:58:48;15.07;;;8.03;;
5718;SDS011;2884;47.734;9.244;2023-06-22T09:01:13;16.03;;;7.40;;
5718;SDS011;2884;47.734;9.244;2023-06-22T09:03:41;14.77;;;6.57;;
5718;SDS011;2884;47.734;9.244;2023-06-22T09:06:07;16.87;;;7.03;;
5718;SDS011;2884;47.734;9.244;2023-06-22T09:08:35;14.70;;;7.70;;
5718;SDS011;2884;47.734;9.244;2023-06-22T09:11:01;16.33;;;6.60;;
5718;SDS011;2884;47.734;9.244;2023-06-22T09:13:27;17.73;;;7.47;;
5718;SDS011;2884;47.734;9.244;2023-06-22T09:15:55;9.80;;;6.60;;
5718;SDS011;2884;47.734;9.244;2023-06-22T09:18:21;16.90;;;6.40;;
5718;SDS011;2884;47.734;9.244;2023-06-22T09:20:46;12.80;;;6.77;;
5718;SDS011;2884;47.734;9.244;2023-06-22T09:23:12;11.50;;;6.60;;
5718;SDS011;2884;47.734;9.244;2023-06-22T09:25:38;9.30;;;5.60;;
5718;SDS011;2884;47.734;9.244;2023-06-22T09:28:05;14.80;;;6.57;;
5718;SDS011;2884;47.734;9.244;2023-06-22T09:30:31;10.30;;;5.60;;
5718;SDS011;2884;47.734;9.244;2023-06-22T09:32:56;12.30;;;7.10;;
5718;SDS011;2884;47.734;9.244;2023-06-22T09:35:21;12.67;;;7.30;;
5718;SDS011;2884;47.734;9.244;2023-06-22T09:37:47;17.20;;;6.20;;
5718;SDS011;2884;47.734;9.244;2023-06-22T09:40:13;14.00;;;7.13;;
5718;SDS011;2884;47.734;9.244;2023-06-22T09:42:41;12.13;;;7.17;;
5718;SDS011;2884;47.734;9.244;2023-06-22T09:45:07;16.87;;;6.73;;
5718;SDS011;2884;47.734;9.244;2023-06-22T09:47:32;9.90;;;5.60;;
5718;SDS011;2884;47.734;9.244;2023-06-22T09:49:58;15.27;;;6.47;;
5718;SDS011;2884;47.734;9.244;2023-06-22T09:52:25;14.63;;;6.00;;
5718;SDS011;2884;47.734;9.244;2023-06-22T09:54:50;11.77;;;5.83;;
5718;SDS011;2884;47.734;9.244;2023-06-22T09:57:16;11.13;;;6.23;;
5718;SDS011;2884;47.734;9.244;2023-06-22T09:59:41;11.13;;;6.40;;
5718;SDS011;2884;47.734;9.244;2023-06-22T10:02:07;9.53;;;5.80;;
5718;SDS011;2884;47.734;9.244;2023-06-22T10:04:33;13.70;;;7.10;;
5718;SDS011;2884;47.734;9.244;2023-06-22T10:06:59;16.37;;;6.50;;
5718;SDS011;2884;47.734;9.244;2023-06-22T10:09:25;11.60;;;5.77;;
5718;SDS011;2884;47.734;9.244;2023-06-22T10:11:50;12.60;;;5.57;;
5718;SDS011;2884;47.734;9.244;2023-06-22T10:14:16;10.30;;;5.30;;
5718;SDS011;2884;47.734;9.244;2023-06-22T10:16:42;13.13;;;6.10;;
5718;SDS011;2884;47.734;9.244;2023-06-22T10:19:07;11.70;;;5.10;;
5718;SDS011;2884;47.734;9.244;2023-06-22T10:21:33;11.63;;;5.73;;
5718;SDS011;2884;47.734;9.244;2023-06-22T10:23:59;14.00;;;5.63;;
5718;SDS011;2884;47.734;9.244;2023-06-22T10:26:30;13.03;;;6.80;;
5718;SDS011;2884;47.734;9.244;2023-06-22T10:28:59;12.87;;;7.00;;
5718;SDS011;2884;47.734;9.244;2023-06-22T10:31:25;14.37;;;5.63;;
5718;SDS011;2884;47.734;9.244;2023-06-22T10:33:50;13.20;;;6.00;;
5718;SDS011;2884;47.734;9.244;2023-06-22T10:36:16;8.63;;;5.10;;
5718;SDS011;2884;47.734;9.244;2023-06-22T10:38:42;12.57;;;5.87;;
5718;SDS011;2884;47.734;9.244;2023-06-22T10:41:07;12.70;;;6.03;;
5718;SDS011;2884;47.734;9.244;2023-06-22T10:43:33;17.30;;;6.80;;
5718;SDS011;2884;47.734;9.244;2023-06-22T10:45:58;8.20;;;5.67;;
5718;SDS011;2884;47.734;9.244;2023-06-22T10:48:24;35.07;;;8.47;;
5718;SDS011;2884;47.734;9.244;2023-06-22T10:50:49;21.60;;;6.70;;
5718;SDS011;2884;47.734;9.244;2023-06-22T10:53:15;20.37;;;6.93;;
5718;SDS011;2884;47.734;9.244;2023-06-22T10:55:40;14.93;;;7.63;;
5718;SDS011;2884;47.734;9.244;2023-06-22T10:58:06;14.93;;;7.10;;
5718;SDS011;2884;47.734;9.244;2023-06-22T11:00:32;24.83;;;7.33;;
5718;SDS011;2884;47.734;9.244;2023-06-22T11:02:57;24.83;;;7.90;;
5718;SDS011;2884;47.734;9.244;2023-06-22T11:05:23;14.70;;;6.47;;
5718;SDS011;2884;47.734;9.244;2023-06-22T11:07:49;22.90;;;7.30;;
5718;SDS011;2884;47.734;9.244;2023-06-22T11:10:15;24.37;;;7.30;;
5718;SDS011;2884;47.734;9.244;2023-06-22T11:12:41;12.87;;;6.40;;
5718;SDS011;2884;47.734;9.244;2023-06-22T11:15:08;15.50;;;6.93;;
5718;SDS011;2884;47.734;9.244;2023-06-22T11:17:34;17.47;;;6.87;;
5718;SDS011;2884;47.734;9.244;2023-06-22T11:19:59;19.00;;;6.93;;
5718;SDS011;2884;47.734;9.244;2023-06-22T11:22:25;15.20;;;6.13;;
5718;SDS011;2884;47.734;9.244;2023-06-22T11:24:51;20.30;;;6.53;;
5718;SDS011;2884;47.734;9.244;2023-06-22T11:27:16;14.90;;;6.43;;
5718;SDS011;2884;47.734;9.244;2023-06-22T11:29:42;15.40;;;6.40;;
5718;SDS011;2884;47.734;9.244;2023-06-22T11:32:08;10.80;;;6.30;;
5718;SDS011;2884;47.734;9.244;2023-06-22T11:34:34;18.07;;;6.73;;
5718;SDS011;2884;47.734;9.244;2023-06-22T11:36:59;20.23;;;7.40;;
5718;SDS011;2884;47.734;9.244;2023-06-22T11:39:25;13.17;;;5.80;;
5718;SDS011;2884;47.734;9.244;2023-06-22T11:41:50;11.73;;;6.63;;
5718;SDS011;2884;47.734;9.244;2023-06-22T11:44:16;13.07;;;5.47;;
5718;SDS011;2884;47.734;9.244;2023-06-22T11:46:41;11.43;;;6.00;;
5718;SDS011;2884;47.734;9.244;2023-06-22T11:49:07;10.83;;;5.87;;
5718;SDS011;2884;47.734;9.244;2023-06-22T11:51:33;13.20;;;6.27;;
5718;SDS011;2884;47.734;9.244;2023-06-22T11:53:58;31.27;;;9.13;;
5718;SDS011;2884;47.734;9.244;2023-06-22T11:56:24;10.03;;;6.00;;
5718;SDS011;2884;47.734;9.244;2023-06-22T11:58:50;9.80;;;6.20;;
5718;SDS011;2884;47.734;9.244;2023-06-22T12:01:15;16.90;;;6.47;;
5718;SDS011;2884;47.734;9.244;2023-06-22T12:03:41;17.90;;;7.63;;
5718;SDS011;2884;47.734;9.244;2023-06-22T12:06:08;18.27;;;7.30;;
5718;SDS011;2884;47.734;9.244;2023-06-22T12:08:34;17.93;;;7.30;;
5718;SDS011;2884;47.734;9.244;2023-06-22T12:11:00;17.00;;;7.13;;
5718;SDS011;2884;47.734;9.244;2023-06-22T12:13:25;16.13;;;7.37;;
5718;SDS011;2884;47.734;9.244;2023-06-22T12:15:51;16.63;;;7.40;;
5718;SDS011;2884;47.734;9.244;2023-06-22T12:18:18;14.93;;;5.97;;
5718;SDS011;2884;47.734;9.244;2023-06-22T12:20:45;11.33;;;6.50;;
5718;SDS011;2884;47.734;9.244;2023-06-22T12:23:11;8.90;;;6.53;;
5718;SDS011;2884;47.734;9.244;2023-06-22T12:25:37;14.33;;;8.10;;
5718;SDS011;2884;47.734;9.244;2023-06-22T12:28:02;21.37;;;7.43;;
5718;SDS011;2884;47.734;9.244;2023-06-22T12:30:29;10.47;;;5.83;;
5718;SDS011;2884;47.734;9.244;2023-06-22T12:32:55;19.30;;;7.07;;
5718;SDS011;2884;47.734;9.244;2023-06-22T12:35:21;19.23;;;7.00;;
5718;SDS011;2884;47.734;9.244;2023-06-22T12:37:46;16.27;;;7.30;;
5718;SDS011;2884;47.734;9.244;2023-06-22T12:40:12;13.80;;;7.20;;
5718;SDS011;2884;47.734;9.244;2023-06-22T12:42:38;15.27;;;6.03;;
5718;SDS011;2884;47.734;9.244;2023-06-22T12:45:03;14.60;;;6.87;;
5718;SDS011;2884;47.734;9.244;2023-06-22T12:47:29;16.20;;;6.70;;
5718;SDS011;2884;47.734;9.244;2023-06-22T12:49:55;14.13;;;6.93;;
5718;SDS011;2884;47.734;9.244;2023-06-22T12:52:20;23.20;;;6.70;;
5718;SDS011;2884;47.734;9.244;2023-06-22T12:54:46;8.73;;;6.33;;
5718;SDS011;2884;47.734;9.244;2023-06-22T12:57:11;14.30;;;6.87;;
5718;SDS011;2884;47.734;9.244;2023-06-22T12:59:37;23.50;;;6.90;;
5718;SDS011;2884;47.734;9.244;2023-06-22T13:02:03;12.73;;;6.30;;
5718;SDS011;2884;47.734;9.244;2023-06-22T13:04:28;13.87;;;6.30;;
5718;SDS011;2884;47.734;9.244;2023-06-22T13:06:54;11.73;;;6.23;;
5718;SDS011;2884;47.734;9.244;2023-06-22T13:09:20;13.60;;;7.03;;
5718;SDS011;2884;47.734;9.244;2023-06-22T13:11:45;10.43;;;5.80;;
5718;SDS011;2884;47.734;9.244;2023-06-22T13:14:11;10.00;;;6.40;;
5718;SDS011;2884;47.734;9.244;2023-06-22T13:16:38;12.87;;;6.10;;
5718;SDS011;2884;47.734;9.244;2023-06-22T13:19:03;22.20;;;6.80;;
5718;SDS011;2884;47.734;9.244;2023-06-22T13:21:29;15.90;;;6.87;;
5718;SDS011;2884;47.734;9.244;2023-06-22T13:23:56;13.90;;;6.60;;
5718;SDS011;2884;47.734;9.244;2023-06-22T13:26:21;17.37;;;6.87;;
5718;SDS011;2884;47.734;9.244;2023-06-22T13:28:47;16.07;;;7.90;;
5718;SDS011;2884;47.734;9.244;2023-06-22T13:31:13;18.00;;;8.03;;
5718;SDS011;2884;47.734;9.244;2023-06-22T13:33:38;24.13;;;8.07;;
5718;SDS011;2884;47.734;9.244;2023-06-22T13:36:06;14.30;;;6.80;;
5718;SDS011;2884;47.734;9.244;2023-06-22T13:38:34;12.37;;;6.20;;
5718;SDS011;2884;47.734;9.244;2023-06-22T13:41:03;22.60;;;6.80;;
5718;SDS011;2884;47.734;9.244;2023-06-22T13:43:29;12.80;;;6.20;;
5718;SDS011;2884;47.734;9.244;2023-06-22T13:45:55;20.83;;;7.90;;
5718;SDS011;2884;47.734;9.244;2023-06-22T13:48:20;15.60;;;6.90;;
5718;SDS011;2884;47.734;9.244;2023-06-22T13:50:46;17.87;;;7.03;;
5718;SDS011;2884;47.734;9.244;2023-06-22T13:53:11;15.30;;;6.43;;
5718;SDS011;2884;47.734;9.244;2023-06-22T13:55:37;18.70;;;6.87;;
5718;SDS011;2884;47.734;9.244;2023-06-22T13:58:02;10.80;;;5.70;;
5718;SDS011;2884;47.734;9.244;2023-06-22T14:00:28;13.20;;;5.60;;
5718;SDS011;2884;47.734;9.244;2023-06-22T14:02:53;15.43;;;6.60;;
5718;SDS011;2884;47.734;9.244;2023-06-22T14:05:19;12.97;;;7.40;;
5718;SDS011;2884;47.734;9.244;2023-06-22T14:07:45;12.63;;;6.80;;
5718;SDS011;2884;47.734;9.244;2023-06-22T14:10:10;16.90;;;7.80;;
5718;SDS011;2884;47.734;9.244;2023-06-22T14:12:36;24.87;;;7.77;;
5718;SDS011;2884;47.734;9.244;2023-06-22T14:15:02;12.30;;;6.40;;
5718;SDS011;2884;47.734;9.244;2023-06-22T14:17:28;14.40;;;7.17;;
5718;SDS011;2884;47.734;9.244;2023-06-22T14:19:53;19.40;;;8.20;;
5718;SDS011;2884;47.734;9.244;2023-06-22T14:22:19;15.63;;;7.50;;
5718;SDS011;2884;47.734;9.244;2023-06-22T14:24:45;12.97;;;7.47;;
5718;SDS011;2884;47.734;9.244;2023-06-22T14:27:12;20.63;;;8.47;;
5718;SDS011;2884;47.734;9.244;2023-06-22T14:29:37;11.97;;;6.50;;
5718;SDS011;2884;47.734;9.244;2023-06-22T14:32:03;16.40;;;6.90;;
5718;SDS011;2884;47.734;9.244;2023-06-22T14:34:31;14.03;;;6.60;;
5718;SDS011;2884;47.734;9.244;2023-06-22T14:36:57;16.70;;;6.53;;
5718;SDS011;2884;47.734;9.244;2023-06-22T14:39:22;17.47;;;6.50;;
5718;SDS011;2884;47.734;9.244;2023-06-22T14:41:47;15.30;;;5.93;;
5718;SDS011;2884;47.734;9.244;2023-06-22T14:44:13;16.67;;;5.07;;
5718;SDS011;2884;47.734;9.244;2023-06-22T14:46:40;11.10;;;5.00;;
5718;SDS011;2884;47.734;9.244;2023-06-22T14:49:05;11.27;;;4.20;;
5718;SDS011;2884;47.734;9.244;2023-06-22T14:51:31;13.53;;;4.67;;
5718;SDS011;2884;47.734;9.244;2023-06-22T14:53:56;13.53;;;4.20;;
5718;SDS011;2884;47.734;9.244;2023-06-22T14:56:22;8.20;;;3.70;;
5718;SDS011;2884;47.734;9.244;2023-06-22T14:58:47;12.23;;;4.37;;
5718;SDS011;2884;47.734;9.244;2023-06-22T15:01:14;24.77;;;4.30;;
5718;SDS011;2884;47.734;9.244;2023-06-22T15:03:41;15.03;;;4.30;;
5718;SDS011;2884;47.734;9.244;2023-06-22T15:06:07;13.10;;;5.23;;
5718;SDS011;2884;47.734;9.244;2023-06-22T15:08:33;16.80;;;4.40;;